M I D A S
Marine Information and Data Acquisition System
Tripno 933 of the Zeeleeuw from 2005-08-23 06:48:49 to 2005-08-23 13:22:24
Back to CruiseResearch ActivitiesStationsMapUnderway DataData graphs

EquipmentUnitsComment
TimeDGPSUTC
LatitudeDGPSDM.mWGS84
LongitudeDGPSDM.mWGS84
TemperatureSBE03/SBE38deg celciusITS90
ConductivitySBE21S/mITS90
SalinitySBE21 Practical Salinity Units
ChlorophylAChelsea fluorimeterg/lCalibrated in Aceton
Missing or incorrect values are displayed as -999
Sea surface data collected by the RV Zeeleeuw from 2005-08-23 06:32:17 to 2005-08-23 13:21:20
Time Latitude Longitude Temperature Conductivity Salinity ChlorophylA
2005-08-23 06:33:23 51°13.616 2°56.011 -999 0.007052 0.040274 0.803093
2005-08-23 06:34:23 51°13.655 2°55.906 -999 0.007052 0.040273 0.803093
2005-08-23 06:35:24 51°13.708 2°55.792 -999 0.007052 0.040274 0.803093
2005-08-23 06:36:23 51°13.725 2°55.754 -999 0.007052 0.040275 0.803093
2005-08-23 06:37:23 51°13.711 2°55.717 -999 0.007052 0.040277 0.803093
2005-08-23 06:38:23 51°13.743 2°55.722 -999 0.007052 0.040279 0.803093
2005-08-23 06:39:23 51°13.807 2°55.653 -999 0.007052 0.040281 0.803093
2005-08-23 06:40:23 51°13.923 2°55.561 -999 0.007052 0.040284 0.769383
2005-08-23 06:41:23 51°14.066 2°55.46 -999 0.007052 0.040287 0.803093
2005-08-23 06:42:23 51°14.21 2°55.334 -999 0.007052 0.04029 0.803093
2005-08-23 06:43:23 51°14.327 2°55.124 -999 0.007052 0.040291 0.803093
2005-08-23 06:44:23 51°14.469 2°54.906 -999 0.007052 0.040293 0.803093
2005-08-23 06:45:23 51°14.645 2°54.719 -999 0.007052 0.040295 0.803093
2005-08-23 06:46:23 51°14.825 2°54.535 -999 0.007052 0.040297 0.803093
2005-08-23 06:47:22 51°15.006 2°54.358 -999 0.007052 0.040298 0.803093
2005-08-23 06:48:23 51°15.191 2°54.178 -999 0.007052 0.040303 0.803093
2005-08-23 06:49:23 51°15.375 2°53.994 -999 4.13956 29.849247 -0.107061
2005-08-23 06:50:23 51°15.556 2°53.804 -999 4.243583 31.387178 -0.343027
2005-08-23 06:51:23 51°15.736 2°53.617 -999 4.212784 31.211926 -0.545283
2005-08-23 06:52:23 51°15.917 2°53.432 -999 4.229999 31.364434 -0.511574
2005-08-23 06:53:23 51°16.098 2°53.248 -999 4.230518 31.381882 -0.410446
2005-08-23 06:54:23 51°16.281 2°53.07 -999 4.241718 31.474021 -0.309317
2005-08-23 06:55:23 51°16.467 2°52.897 -999 4.253646 31.581247 -0.444155
2005-08-23 06:56:23 51°16.656 2°52.732 -999 4.267336 31.69897 -0.511574
2005-08-23 06:57:23 51°16.848 2°52.579 -999 4.27107 31.734175 -0.545283
2005-08-23 06:58:23 51°17.047 2°52.453 -999 4.287147 31.879745 -0.646411
2005-08-23 06:59:23 51°17.251 2°52.349 -999 4.302602 32.015451 -0.612702
2005-08-23 07:00:23 51°17.459 2°52.333 -999 4.31121 32.062516 -0.612702
2005-08-23 07:01:22 51°17.664 2°52.332 -999 4.310484 32.047923 -0.578993
2005-08-23 07:02:23 51°17.866 2°52.383 -999 4.306543 32.016414 -0.578993
2005-08-23 07:03:23 51°18.052 2°52.507 -999 4.292436 31.909662 -0.612702
2005-08-23 07:04:23 51°18.21 2°52.7 -999 4.291503 31.912875 -0.646411
2005-08-23 07:05:23 51°18.327 2°52.955 -999 4.290984 31.914052 -0.646411
2005-08-23 07:06:23 51°18.402 2°53.251 -999 4.268581 31.736542 -0.612702
2005-08-23 07:07:23 51°18.481 2°53.545 -999 4.262151 31.701336 -0.578993
2005-08-23 07:08:23 51°18.567 2°53.832 -999 4.269515 31.769777 -0.545283
2005-08-23 07:09:23 51°18.657 2°54.118 -999 4.271486 31.792835 -0.578993
2005-08-23 07:10:23 51°18.744 2°54.406 -999 4.268374 31.766372 -0.612702
2005-08-23 07:11:23 51°18.828 2°54.695 -999 4.285799 31.903882 -0.545283
2005-08-23 07:12:23 51°18.912 2°54.988 -999 4.284036 31.894714 -0.477864
2005-08-23 07:13:23 51°18.998 2°55.278 -999 4.287874 31.932727 -0.410446
2005-08-23 07:14:23 51°19.087 2°55.567 -999 4.288496 31.945235 -0.410446
2005-08-23 07:15:23 51°19.173 2°55.86 -999 4.281028 31.875804 -0.343027
2005-08-23 07:16:22 51°19.255 2°56.152 -999 4.256965 31.670991 -0.309317
2005-08-23 07:17:23 51°19.338 2°56.449 -999 4.269411 31.771952 -0.241899
2005-08-23 07:18:23 51°19.419 2°56.743 -999 4.256862 31.663471 -0.208189
2005-08-23 07:19:23 51°19.5 2°57.037 -999 4.259454 31.681973 -0.17448
2005-08-23 07:20:23 51°19.583 2°57.332 -999 4.243794 31.547152 -0.208189
2005-08-23 07:21:23 51°19.662 2°57.63 -999 4.25292 31.619869 -0.208189
2005-08-23 07:22:23 51°19.741 2°57.926 -999 4.241097 31.517553 -0.208189
2005-08-23 07:23:23 51°19.82 2°58.221 -999 4.251468 31.6048 -0.17448
2005-08-23 07:24:23 51°19.898 2°58.516 -999 4.252402 31.613753 -0.17448
2005-08-23 07:25:22 51°19.978 2°58.806 -999 4.247009 31.569003 -0.107061
2005-08-23 07:26:23 51°20.056 2°59.1 -999 4.235082 31.478491 -0.107061
2005-08-23 07:27:23 51°20.132 2°59.392 -999 4.219941 31.358319 -0.17448
2005-08-23 07:28:22 51°20.207 2°59.679 -999 4.254891 31.64348 -0.17448
2005-08-23 07:29:23 51°20.281 2°59.97 -999 4.229793 31.449044 -0.005933
2005-08-23 07:30:23 51°20.359 3°0.254 -999 4.219941 31.367312 -0.073352
2005-08-23 07:31:23 51°20.432 3°0.539 -999 4.190177 31.067152 -0.17448
2005-08-23 07:32:22 51°20.505 3°0.819 -999 4.17877 30.939198 -0.039642
2005-08-23 07:33:23 51°20.58 3°1.102 -999 4.178148 30.93524 -0.039642
2005-08-23 07:34:23 51°20.653 3°1.387 -999 4.178459 30.942524 -0.005933
2005-08-23 07:35:23 51°20.728 3°1.666 -999 4.178874 30.953618 -0.005933
2005-08-23 07:36:23 51°20.8 3°1.948 -999 4.1796 30.977329 -0.005933
2005-08-23 07:37:23 51°20.874 3°2.228 -999 4.174519 30.917642 -0.107061
2005-08-23 07:38:23 51°20.947 3°2.504 -999 4.169852 30.847357 -0.107061
2005-08-23 07:39:23 51°21.017 3°2.78 -999 4.169644 30.830974 -0.14077
2005-08-23 07:40:23 51°21.087 3°3.055 -999 4.170577 30.821079 -0.14077
2005-08-23 07:41:23 51°21.156 3°3.331 -999 4.171303 30.820616 -0.14077
2005-08-23 07:42:22 51°21.225 3°3.601 -999 4.172444 30.827671 -0.107061
2005-08-23 07:43:23 51°21.295 3°3.873 -999 4.173169 30.831308 -0.14077
2005-08-23 07:44:23 51°21.362 3°4.144 -999 4.172962 30.832529 -0.107061
2005-08-23 07:45:23 51°21.431 3°4.415 -999 4.174414 30.845077 -0.039642
2005-08-23 07:46:23 51°21.498 3°4.686 -999 4.174932 30.851695 0.027777
2005-08-23 07:47:23 51°21.568 3°4.957 -999 4.175243 30.856019 -0.005933
2005-08-23 07:48:23 51°21.639 3°5.227 -999 4.172029 30.844773 -0.073352
2005-08-23 07:49:23 51°21.705 3°5.5 -999 4.157927 30.729118 -0.241899
2005-08-23 07:50:23 51°21.765 3°5.779 -999 4.1656 30.77948 0.600836
2005-08-23 07:51:23 51°21.814 3°6.063 -999 4.172547 30.829697 1.780665
2005-08-23 07:52:23 51°21.864 3°6.339 -999 4.173584 30.832967 1.308734
2005-08-23 07:53:23 51°21.894 3°6.621 -999 4.170992 30.808684 0.39858
2005-08-23 07:54:23 51°21.917 3°6.901 -999 4.182087 30.894226 0.061486
2005-08-23 07:55:23 51°21.951 3°7.18 -999 4.179184 30.873238 -0.309317
2005-08-23 07:56:23 51°21.981 3°7.457 -999 4.175243 30.833747 -0.309317
2005-08-23 07:57:23 51°22.011 3°7.74 -999 4.172754 30.811496 -0.444155
2005-08-23 07:58:23 51°22.037 3°8.022 -999 4.179909 30.871594 -0.309317
2005-08-23 07:59:23 51°22.068 3°8.304 -999 4.177421 30.85051 -0.241899
2005-08-23 08:00:23 51°22.099 3°8.587 -999 4.173999 30.828769 0.027777
2005-08-23 08:01:23 51°22.132 3°8.873 -999 4.178147 30.865868 0.499708
2005-08-23 08:02:23 51°22.162 3°9.161 -999 4.185094 30.928993 0.364871
2005-08-23 08:03:23 51°22.194 3°9.451 -999 4.19785 31.045364 0.870512
2005-08-23 08:04:23 51°22.231 3°9.734 -999 4.207909 31.144947 0.263742
2005-08-23 08:05:23 51°22.266 3°10.014 -999 4.201376 31.095148 -0.107061
2005-08-23 08:06:23 51°22.3 3°10.294 -999 4.195672 31.048654 0.128905
2005-08-23 08:07:23 51°22.337 3°10.577 -999 4.198783 31.073744 0.465999
2005-08-23 08:08:23 51°22.378 3°10.858 -999 4.199716 31.070807 0.196324
2005-08-23 08:09:23 51°22.417 3°11.131 -999 4.200857 31.068993 0.027777
2005-08-23 08:10:23 51°22.457 3°11.405 -999 4.20542 31.106642 -0.14077
2005-08-23 08:11:23 51°22.496 3°11.682 -999 4.216827 31.200794 -0.17448
2005-08-23 08:12:23 51°22.535 3°11.959 -999 4.227716 31.28119 -0.107061
2005-08-23 08:13:23 51°22.577 3°12.238 -999 4.232279 31.312916 -0.005933
2005-08-23 08:14:22 51°22.613 3°12.513 -999 4.230827 31.300334 0.230033
2005-08-23 08:15:23 51°22.655 3°12.789 -999 4.225746 31.261951 0.499708
2005-08-23 08:16:22 51°22.692 3°13.06 -999 4.217138 31.193872 0.567127
2005-08-23 08:17:23 51°22.796 3°13.265 -999 4.205212 31.100791 0.297452
2005-08-23 08:18:23 51°22.991 3°13.256 -999 4.197642 31.034212 0.230033
2005-08-23 08:19:23 51°23.196 3°13.203 -999 4.200131 31.048837 0.196324
2005-08-23 08:20:22 51°23.395 3°13.158 -999 4.208323 31.113448 1.308734
2005-08-23 08:21:23 51°23.601 3°13.113 -999 4.219834 31.208414 1.342443
2005-08-23 08:22:23 51°23.804 3°13.079 -999 4.224501 31.246333 1.409862
2005-08-23 08:23:23 51°23.995 3°13.112 -999 4.226679 31.265496 0.735674
2005-08-23 08:24:23 51°24.168 3°13.238 -999 4.228961 31.286113 0.600836
2005-08-23 08:25:23 51°24.341 3°13.36 -999 4.230309 31.300217 0.263742
2005-08-23 08:26:23 51°24.519 3°13.452 -999 4.243065 31.407953 0.735674
2005-08-23 08:27:23 51°24.719 3°13.348 -999 4.248873 31.458331 1.140187
2005-08-23 08:28:23 51°24.909 3°13.127 -999 4.248562 31.45875 -0.073352
2005-08-23 08:29:23 51°25.102 3°12.911 -999 4.252192 31.491746 0.027777
2005-08-23 08:30:23 51°25.218 3°12.607 -999 4.272313 31.669581 0.331161
2005-08-23 08:31:23 51°25.199 3°12.204 -999 4.275321 31.696887 0.263742
2005-08-23 08:32:23 51°25.161 3°11.802 -999 4.276255 31.709441 0.499708
2005-08-23 08:33:23 51°25.12 3°11.397 -999 4.276981 31.720282 0.634546
2005-08-23 08:34:22 51°25.079 3°10.999 -999 4.277499 31.726388 0.904221
2005-08-23 08:35:23 51°25.038 3°10.597 -999 4.278018 31.736121 1.106477
2005-08-23 08:36:22 51°24.994 3°10.208 -999 4.279678 31.75289 1.072768
2005-08-23 08:37:23 51°24.95 3°9.815 -999 4.280715 31.767533 1.039059
2005-08-23 08:38:23 51°24.899 3°9.435 -999 4.280922 31.774094 0.97164
2005-08-23 08:39:23 51°24.852 3°9.052 -999 4.280404 31.772823 0.769383
2005-08-23 08:40:23 51°24.807 3°8.666 -999 4.278848 31.761139 0.567127
2005-08-23 08:41:23 51°24.761 3°8.278 -999 4.276151 31.736976 0.364871
2005-08-23 08:42:23 51°24.72 3°7.894 -999 4.273351 31.710751 0.061486
2005-08-23 08:43:23 51°24.707 3°7.512 -999 4.271484 31.692266 -0.073352
2005-08-23 08:44:23 51°24.869 3°7.346 -999 4.270343 31.677385 -0.17448
2005-08-23 08:45:23 51°25.065 3°7.29 -999 4.268061 31.66271 -0.17448
2005-08-23 08:46:23 51°25.261 3°7.226 -999 4.266194 31.649057 -0.17448
2005-08-23 08:47:23 51°25.46 3°7.162 -999 4.264431 31.635661 -0.275608
2005-08-23 08:48:23 51°25.659 3°7.1 -999 4.263913 31.630764 -0.275608
2005-08-23 08:49:23 51°25.858 3°7.04 -999 4.262357 31.618483 -0.241899
2005-08-23 08:50:23 51°26.043 3°7.084 -999 4.260283 31.601908 -0.17448
2005-08-23 08:51:23 51°26.121 3°7.354 -999 4.260075 31.605007 -0.17448
2005-08-23 08:52:23 51°26.205 3°7.616 -999 4.263705 31.635675 -0.17448
2005-08-23 08:53:23 51°26.299 3°7.887 -999 4.265883 31.65432 -0.208189
2005-08-23 08:54:23 51°26.395 3°8.159 -999 4.266609 31.663954 -0.241899
2005-08-23 08:55:23 51°26.488 3°8.433 -999 4.266921 31.670153 -0.241899
2005-08-23 08:56:23 51°26.579 3°8.714 -999 4.267439 31.681093 -0.241899
2005-08-23 08:57:23 51°26.711 3°8.909 -999 4.267751 31.690318 -0.275608
2005-08-23 08:58:23 51°26.888 3°8.788 -999 4.267439 31.685322 -0.14077
2005-08-23 08:59:23 51°27.064 3°8.623 -999 4.264121 31.671703 -0.241899
2005-08-23 09:00:23 51°27.24 3°8.453 -999 4.260387 31.640746 -0.309317
2005-08-23 09:01:23 51°27.414 3°8.286 -999 4.257794 31.619853 -0.410446
2005-08-23 09:02:23 51°27.587 3°8.117 -999 4.25852 31.628889 -0.477864
2005-08-23 09:03:23 51°27.765 3°7.964 -999 4.259039 31.635603 -0.545283
2005-08-23 09:04:23 51°27.945 3°7.818 -999 4.265469 31.691348 -0.578993
2005-08-23 09:05:23 51°28.127 3°7.671 -999 4.270655 31.736184 -0.612702
2005-08-23 09:06:23 51°28.313 3°7.519 -999 4.275841 31.77982 -0.646411
2005-08-23 09:07:23 51°28.497 3°7.37 -999 4.279575 31.81263 -0.646411
2005-08-23 09:08:23 51°28.679 3°7.218 -999 4.286109 31.871132 -0.680121
2005-08-23 09:09:23 51°28.86 3°7.067 -999 4.307165 32.040532 -0.680121
2005-08-23 09:10:23 51°29.043 3°6.915 -999 4.316604 32.115294 -0.71383
2005-08-23 09:11:23 51°29.224 3°6.766 -999 4.321687 32.155697 -0.74754
2005-08-23 09:12:23 51°29.402 3°6.618 -999 4.331334 32.235896 -0.781249
2005-08-23 09:13:23 51°29.575 3°6.447 -999 4.340463 32.310577 -0.646411
2005-08-23 09:14:23 51°29.745 3°6.271 -999 4.342641 32.32808 -0.646411
2005-08-23 09:15:23 51°29.913 3°6.097 -999 4.342434 32.326354 -0.781249
2005-08-23 09:16:23 51°30.076 3°5.929 -999 4.331127 32.234786 -0.814958
2005-08-23 09:17:23 51°30.243 3°5.758 -999 4.325214 32.182556 -0.781249
2005-08-23 09:18:23 51°30.419 3°5.583 -999 4.325733 32.185024 -0.781249
2005-08-23 09:19:23 51°30.59 3°5.411 -999 4.329882 32.220745 -0.781249
2005-08-23 09:20:23 51°30.761 3°5.238 -999 4.337247 32.286914 -0.814958
2005-08-23 09:21:23 51°30.93 3°5.065 -999 4.356127 32.459494 -0.814958
2005-08-23 09:22:23 51°31.099 3°4.889 -999 4.359135 32.474001 -0.74754
2005-08-23 09:23:23 51°31.273 3°4.715 -999 4.352185 32.417381 -0.848668
2005-08-23 09:24:23 51°31.443 3°4.544 -999 4.34731 32.38546 -0.848668
2005-08-23 09:25:23 51°31.614 3°4.37 -999 4.347206 32.382741 -0.848668
2005-08-23 09:26:23 51°31.784 3°4.197 -999 4.348658 32.393593 -0.848668
2005-08-23 09:27:23 51°31.956 3°4.026 -999 4.348658 32.393593 -0.848668
2005-08-23 09:28:23 51°32.128 3°3.854 -999 4.351148 32.414937 -0.848668
2005-08-23 09:29:23 51°32.297 3°3.682 -999 4.360899 32.493648 -0.848668
2005-08-23 09:30:23 51°32.468 3°3.515 -999 4.365152 32.525963 -0.848668
2005-08-23 09:31:23 51°32.639 3°3.348 -999 4.363907 32.514354 -0.848668
2005-08-23 09:32:23 51°32.812 3°3.182 -999 4.363492 32.510278 -0.814958
2005-08-23 09:33:23 51°32.88 3°2.882 -999 4.362455 32.502881 -0.74754
2005-08-23 09:34:23 51°32.789 3°2.53 -999 4.363907 32.516217 -0.814958
2005-08-23 09:35:23 51°32.7 3°2.167 -999 4.364841 32.525235 -0.814958
2005-08-23 09:36:23 51°32.613 3°1.806 -999 4.364841 32.525856 -0.848668
2005-08-23 09:37:23 51°32.534 3°1.44 -999 4.371169 32.577322 -0.814958
2005-08-23 09:38:23 51°32.462 3°1.074 -999 4.371999 32.582991 -0.814958
2005-08-23 09:39:23 51°32.389 3°0.707 -999 4.372622 32.586931 -0.848668
2005-08-23 09:40:23 51°32.314 3°0.336 -999 4.373555 32.589107 -0.848668
2005-08-23 09:41:23 51°32.238 2°59.966 -999 4.376356 32.611815 -0.848668
2005-08-23 09:42:23 51°32.164 2°59.593 -999 4.379884 32.649926 -0.848668
2005-08-23 09:43:23 51°32.092 2°59.217 -999 4.382374 32.673795 -0.848668
2005-08-23 09:44:23 51°32.016 2°58.84 -999 4.385071 32.7019 -0.848668
2005-08-23 09:45:23 51°31.939 2°58.465 -999 4.38891 32.738283 -0.882377
2005-08-23 09:46:23 51°31.866 2°58.085 -999 4.391088 32.763967 -0.882377
2005-08-23 09:47:23 51°31.787 2°57.707 -999 4.399388 32.842003 -0.882377
2005-08-23 09:48:23 51°31.716 2°57.339 -999 4.397832 32.825876 -0.882377
2005-08-23 09:49:23 51°31.642 2°56.972 -999 4.40302 32.867286 -0.848668
2005-08-23 09:50:23 51°31.565 2°56.613 -999 4.412772 32.951852 -0.848668
2005-08-23 09:51:23 51°31.487 2°56.251 -999 4.42377 33.051294 -0.848668
2005-08-23 09:52:23 51°31.483 2°55.905 -999 4.425949 33.069501 -0.882377
2005-08-23 09:53:23 51°31.635 2°55.895 -999 4.427194 33.083703 -0.848668
2005-08-23 09:54:23 51°31.762 2°56.082 -999 4.419101 33.019864 -0.848668
2005-08-23 09:55:23 51°31.892 2°56.281 -999 4.42128 33.039969 -0.882377
2005-08-23 09:56:23 51°32.005 2°56.501 -999 4.42709 33.093601 -0.848668
2005-08-23 09:57:23 51°32.129 2°56.713 -999 4.427402 33.098104 -0.814958
2005-08-23 09:58:23 51°32.254 2°56.916 -999 4.431759 33.137081 -0.848668
2005-08-23 09:59:23 51°32.382 2°57.119 -999 4.432382 33.142288 -0.848668
2005-08-23 10:00:23 51°32.513 2°57.322 -999 4.431448 33.136381 -0.848668
2005-08-23 10:01:23 51°32.643 2°57.525 -999 4.434042 33.158712 -0.848668
2005-08-23 10:02:23 51°32.772 2°57.729 -999 4.434768 33.164787 -0.848668
2005-08-23 10:03:23 51°32.9 2°57.932 -999 4.434872 33.166925 -0.848668
2005-08-23 10:04:23 51°33.035 2°58.132 -999 4.434769 33.167328 -0.848668
2005-08-23 10:05:23 51°33.166 2°58.331 -999 4.43508 33.170567 -0.848668
2005-08-23 10:06:23 51°33.295 2°58.543 -999 4.435391 33.1719 -0.848668
2005-08-23 10:07:23 51°33.424 2°58.756 -999 4.43508 33.170567 -0.848668
2005-08-23 10:08:23 51°33.551 2°58.972 -999 4.434561 33.166227 -0.848668
2005-08-23 10:09:23 51°33.672 2°59.181 -999 4.434665 33.168365 -0.814958
2005-08-23 10:10:23 51°33.798 2°59.396 -999 4.434146 33.16593 -0.814958
2005-08-23 10:11:23 51°33.923 2°59.606 -999 4.433108 33.157885 -0.814958
2005-08-23 10:12:23 51°34.053 2°59.82 -999 4.431241 33.144799 -0.848668
2005-08-23 10:13:23 51°34.175 3°0.04 -999 4.431345 33.141859 -0.848668
2005-08-23 10:14:23 51°34.298 3°0.263 -999 4.431656 33.143828 -0.814958
2005-08-23 10:15:23 51°34.421 3°0.485 -999 4.43093 33.138387 -0.848668
2005-08-23 10:16:23 51°34.543 3°0.709 -999 4.428336 33.112251 -0.848668
2005-08-23 10:17:23 51°34.664 3°0.933 -999 4.42626 33.091729 -0.848668
2005-08-23 10:18:23 51°34.826 3°1.004 -999 4.423978 33.070744 -0.848668
2005-08-23 10:19:23 51°34.971 3°0.803 -999 4.422836 33.057405 -0.781249
2005-08-23 10:20:23 51°35.11 3°0.564 -999 4.424185 33.066782 -0.848668
2005-08-23 10:21:23 51°35.228 3°0.298 -999 4.425742 33.076626 -0.814958
2005-08-23 10:22:23 51°35.172 2°59.936 -999 4.429373 33.102549 -0.814958
2005-08-23 10:23:23 51°35.057 2°59.575 -999 4.432174 33.122164 -0.848668
2005-08-23 10:24:23 51°34.935 2°59.222 -999 4.434768 33.143213 -0.848668
2005-08-23 10:25:23 51°34.805 2°58.875 -999 4.437466 33.161959 -0.848668
2005-08-23 10:26:23 51°34.673 2°58.524 -999 4.438711 33.172367 -0.848668
2005-08-23 10:27:23 51°34.539 2°58.174 -999 4.441824 33.19839 -0.882377
2005-08-23 10:28:23 51°34.406 2°57.828 -999 4.445144 33.224245 -0.848668
2005-08-23 10:29:23 51°34.276 2°57.489 -999 4.447427 33.247784 -0.882377
2005-08-23 10:30:23 51°34.143 2°57.139 -999 4.45303 33.294649 -0.882377
2005-08-23 10:31:23 51°34.012 2°56.797 -999 4.457284 33.328325 -0.848668
2005-08-23 10:32:23 51°33.882 2°56.454 -999 4.4605 33.345667 -0.848668
2005-08-23 10:33:23 51°33.754 2°56.115 -999 4.458736 33.328363 -0.848668
2005-08-23 10:34:23 51°33.626 2°55.776 -999 4.45552 33.303375 -0.848668
2005-08-23 10:35:23 51°33.491 2°55.439 -999 4.451888 33.271098 -0.848668
2005-08-23 10:36:23 51°33.352 2°55.099 -999 4.449813 33.253748 -0.848668
2005-08-23 10:37:23 51°33.219 2°54.762 -999 4.447945 33.238769 -0.848668
2005-08-23 10:38:23 51°33.084 2°54.425 -999 4.448568 33.240796 -0.814958
2005-08-23 10:39:23 51°32.949 2°54.093 -999 4.448671 33.244206 -0.814958
2005-08-23 10:40:23 51°32.813 2°53.751 -999 4.448049 33.240908 -0.848668
2005-08-23 10:41:23 51°32.674 2°53.416 -999 4.448153 33.244319 -0.814958
2005-08-23 10:42:23 51°32.535 2°53.081 -999 4.448879 33.251027 -0.848668
2005-08-23 10:43:23 51°32.395 2°52.752 -999 4.449917 33.266066 -0.814958
2005-08-23 10:44:23 51°32.25 2°52.425 -999 4.450228 33.271215 -0.814958
2005-08-23 10:45:23 51°32.108 2°52.09 -999 4.451681 33.282092 -0.814958
2005-08-23 10:46:23 51°31.968 2°51.757 -999 4.454275 33.303153 -0.814958
2005-08-23 10:47:23 51°31.829 2°51.425 -999 4.456765 33.321435 -0.814958
2005-08-23 10:48:23 51°31.689 2°51.092 -999 4.459982 33.348344 -0.814958
2005-08-23 10:49:23 51°31.55 2°50.756 -999 4.461642 33.361595 -0.848668
2005-08-23 10:50:23 51°31.414 2°50.421 -999 4.463821 33.382381 -0.848668
2005-08-23 10:51:23 51°31.277 2°50.091 -999 4.465792 33.400157 -0.848668
2005-08-23 10:52:23 51°31.138 2°49.758 -999 4.46849 33.424654 -0.848668
2005-08-23 10:53:23 51°30.999 2°49.425 -999 4.470254 33.443259 -0.848668
2005-08-23 10:54:23 51°30.861 2°49.089 -999 4.473056 33.466715 -0.848668
2005-08-23 10:55:23 51°30.72 2°48.756 -999 4.476999 33.497808 -0.848668
2005-08-23 10:56:23 51°30.585 2°48.42 -999 4.480008 33.522365 -0.848668
2005-08-23 10:57:23 51°30.448 2°48.082 -999 4.482395 33.542994 -0.848668
2005-08-23 10:58:23 51°30.31 2°47.749 -999 4.485716 33.570805 -0.882377
2005-08-23 10:59:23 51°30.172 2°47.414 -999 4.488206 33.592309 -0.882377
2005-08-23 11:00:23 51°30.037 2°47.081 -999 4.490904 33.618128 -0.882377
2005-08-23 11:01:23 51°29.899 2°46.745 -999 4.493083 33.637676 -0.882377
2005-08-23 11:02:23 51°29.766 2°46.412 -999 4.495159 33.657 -0.882377
2005-08-23 11:03:23 51°29.634 2°46.076 -999 4.498272 33.681158 -0.882377
2005-08-23 11:04:23 51°29.516 2°45.733 -999 4.500659 33.703099 -0.882377
2005-08-23 11:05:23 51°29.524 2°45.377 -999 4.503357 33.727654 -0.882377
2005-08-23 11:06:23 51°29.678 2°45.171 -999 4.505744 33.751543 -0.882377
2005-08-23 11:07:23 51°29.861 2°45.05 -999 4.505121 33.752139 -0.882377
2005-08-23 11:08:23 51°30.047 2°44.984 -999 4.503149 33.736895 -0.882377
2005-08-23 11:09:23 51°30.204 2°45.099 -999 4.5018 33.730104 -0.882377
2005-08-23 11:10:23 51°30.315 2°45.331 -999 4.500555 33.720306 -0.882377
2005-08-23 11:11:23 51°30.421 2°45.574 -999 4.49848 33.704836 -0.882377
2005-08-23 11:12:23 51°30.524 2°45.815 -999 4.495574 33.671438 -0.882377
2005-08-23 11:13:23 51°30.628 2°46.061 -999 4.492461 33.644695 -0.882377
2005-08-23 11:14:23 51°30.737 2°46.307 -999 4.489763 33.620149 -0.882377
2005-08-23 11:15:23 51°30.842 2°46.551 -999 4.48831 33.601539 -0.882377
2005-08-23 11:16:23 51°30.946 2°46.794 -999 4.488933 33.610617 -0.882377
2005-08-23 11:17:23 51°31.047 2°47.037 -999 4.486442 33.59039 -0.882377
2005-08-23 11:18:23 51°31.15 2°47.281 -999 4.484263 33.577917 -0.848668
2005-08-23 11:19:23 51°31.251 2°47.524 -999 4.483329 33.571376 -0.848668
2005-08-23 11:20:23 51°31.35 2°47.771 -999 4.482499 33.563133 -0.848668
2005-08-23 11:21:23 51°31.453 2°48.015 -999 4.482499 33.566991 -0.848668
2005-08-23 11:22:23 51°31.552 2°48.261 -999 4.481461 33.555081 -0.882377
2005-08-23 11:23:23 51°31.649 2°48.511 -999 4.480216 33.541434 -0.848668
2005-08-23 11:24:23 51°31.744 2°48.759 -999 4.478971 33.52715 -0.848668
2005-08-23 11:25:23 51°31.836 2°49.004 -999 4.478867 33.528206 -0.848668
2005-08-23 11:26:23 51°31.93 2°49.254 -999 4.476688 33.506102 -0.882377
2005-08-23 11:27:23 51°32.025 2°49.506 -999 4.475962 33.500018 -0.882377
2005-08-23 11:28:23 51°32.119 2°49.752 -999 4.474509 33.484646 -0.848668
2005-08-23 11:29:23 51°32.217 2°50.005 -999 4.47316 33.471427 -0.848668
2005-08-23 11:30:23 51°32.314 2°50.253 -999 4.471603 33.462237 -0.848668
2005-08-23 11:31:23 51°32.413 2°50.507 -999 4.470255 33.454784 -0.848668
2005-08-23 11:32:23 51°32.509 2°50.755 -999 4.469528 33.4455 -0.848668
2005-08-23 11:33:23 51°32.608 2°51.005 -999 4.469632 33.444448 -0.848668
2005-08-23 11:34:23 51°32.707 2°51.257 -999 4.46849 33.437451 -0.848668
2005-08-23 11:35:23 51°32.806 2°51.51 -999 4.467141 33.421678 -0.848668
2005-08-23 11:36:23 51°32.904 2°51.761 -999 4.465481 33.410977 -0.848668
2005-08-23 11:37:23 51°33.005 2°52.008 -999 4.463198 33.389309 -0.848668
2005-08-23 11:38:23 51°33.107 2°52.265 -999 4.460916 33.363178 -0.882377
2005-08-23 11:39:23 51°33.211 2°52.513 -999 4.458633 33.338972 -0.848668
2005-08-23 11:40:23 51°33.314 2°52.767 -999 4.45718 33.331921 -0.848668
2005-08-23 11:41:23 51°33.415 2°53.019 -999 4.456454 33.320743 -0.848668
2005-08-23 11:42:23 51°33.506 2°53.28 -999 4.455935 33.313217 -0.848668
2005-08-23 11:43:23 51°33.47 2°53.585 -999 4.454586 33.294928 -0.848668
2005-08-23 11:44:23 51°33.297 2°53.809 -999 4.448567 33.233806 -0.848668
2005-08-23 11:45:23 51°33.093 2°53.973 -999 4.443794 33.189479 -0.848668
2005-08-23 11:46:23 51°32.885 2°54.134 -999 4.444417 33.191508 -0.814958
2005-08-23 11:47:23 51°32.677 2°54.297 -999 4.448464 33.223412 -0.848668
2005-08-23 11:48:23 51°32.466 2°54.46 -999 4.453029 33.259653 -0.848668
2005-08-23 11:49:23 51°32.258 2°54.629 -999 4.457802 33.298904 -0.848668
2005-08-23 11:50:23 51°32.046 2°54.788 -999 4.462471 33.339205 -0.848668
2005-08-23 11:51:23 51°31.827 2°54.929 -999 4.46299 33.352465 -0.848668
2005-08-23 11:52:23 51°31.61 2°55.08 -999 4.459463 33.337626 -0.848668
2005-08-23 11:53:23 51°31.392 2°55.231 -999 4.458529 33.327903 -0.848668
2005-08-23 11:54:23 51°31.174 2°55.384 -999 4.458425 33.327035 -0.848668
2005-08-23 11:55:23 51°30.955 2°55.54 -999 4.458321 33.328079 -0.848668
2005-08-23 11:56:23 51°30.741 2°55.68 -999 4.45635 33.309679 -0.848668
2005-08-23 11:57:23 51°30.525 2°55.801 -999 4.445559 33.212469 -0.882377
2005-08-23 11:58:23 51°30.305 2°55.915 -999 4.419308 32.974282 -0.882377
2005-08-23 11:59:23 51°30.085 2°56.037 -999 4.409244 32.882785 -0.882377
2005-08-23 12:00:23 51°29.869 2°56.167 -999 4.400217 32.777487 -0.848668
2005-08-23 12:01:23 51°29.65 2°56.295 -999 4.398869 32.789397 -0.848668
2005-08-23 12:02:23 51°29.429 2°56.426 -999 4.397312 32.768296 -0.848668
2005-08-23 12:03:23 51°29.212 2°56.552 -999 4.386626 32.631966 -0.848668
2005-08-23 12:04:23 51°28.996 2°56.692 -999 4.381646 32.598632 -0.814958
2005-08-23 12:05:23 51°28.773 2°56.815 -999 4.372828 32.543914 -0.781249
2005-08-23 12:06:23 51°28.535 2°56.81 -999 4.363492 32.472454 -0.781249
2005-08-23 12:07:23 51°28.299 2°56.711 -999 4.360587 32.448916 -0.781249
2005-08-23 12:08:23 51°28.065 2°56.598 -999 4.35872 32.434625 -0.814958
2005-08-23 12:09:23 51°27.831 2°56.496 -999 4.35457 32.39456 -0.781249
2005-08-23 12:10:23 51°27.595 2°56.394 -999 4.349383 32.344662 -0.781249
2005-08-23 12:11:23 51°27.359 2°56.295 -999 4.3443 32.306738 -0.74754
2005-08-23 12:12:23 51°27.119 2°56.191 -999 4.341707 32.279651 -0.74754
2005-08-23 12:13:23 51°26.881 2°56.091 -999 4.337765 32.248138 -0.71383
2005-08-23 12:14:23 51°26.642 2°55.995 -999 4.333823 32.214785 -0.646411
2005-08-23 12:15:23 51°26.41 2°55.896 -999 4.331126 32.193615 -0.578993
2005-08-23 12:16:23 51°26.171 2°55.804 -999 4.327288 32.162359 -0.578993
2005-08-23 12:17:23 51°25.932 2°55.713 -999 4.327599 32.160652 -0.612702
2005-08-23 12:18:23 51°25.697 2°55.621 -999 4.325317 32.13742 -0.646411
2005-08-23 12:19:23 51°25.464 2°55.533 -999 4.319612 32.09374 -0.646411
2005-08-23 12:20:23 51°25.233 2°55.448 -999 4.312766 32.038151 -0.612702
2005-08-23 12:21:23 51°25.002 2°55.362 -999 4.303223 31.954722 -0.578993
2005-08-23 12:22:23 51°24.773 2°55.281 -999 4.294821 31.878982 -0.578993
2005-08-23 12:23:23 51°24.543 2°55.186 -999 4.279885 31.748562 -0.646411
2005-08-23 12:24:23 51°24.316 2°55.094 -999 4.272625 31.699301 -0.646411
2005-08-23 12:25:23 51°24.086 2°55.003 -999 4.267646 31.659877 -0.612702
2005-08-23 12:26:23 51°23.853 2°54.905 -999 4.263705 31.641704 -0.646411
2005-08-23 12:27:23 51°23.618 2°54.802 -999 4.26215 31.642687 -0.545283
2005-08-23 12:28:23 51°23.386 2°54.703 -999 4.257794 31.605985 -0.444155
2005-08-23 12:29:23 51°23.157 2°54.606 -999 4.254164 31.576511 -0.410446
2005-08-23 12:30:23 51°22.927 2°54.507 -999 4.24763 31.517574 -0.241899
2005-08-23 12:31:23 51°22.698 2°54.411 -999 4.250119 31.536987 -0.275608
2005-08-23 12:32:23 51°22.47 2°54.319 -999 4.249808 31.524195 -0.376736
2005-08-23 12:33:23 51°22.244 2°54.224 -999 4.249704 31.499328 -0.578993
2005-08-23 12:34:23 51°22.02 2°54.128 -999 4.245451 31.463553 -0.511574
2005-08-23 12:35:23 51°21.791 2°54.033 -999 4.243273 31.440153 -0.545283
2005-08-23 12:36:23 51°21.56 2°53.94 -999 4.243895 31.435128 -0.511574
2005-08-23 12:37:23 51°21.329 2°53.839 -999 4.246488 31.451178 -0.545283
2005-08-23 12:38:23 51°21.102 2°53.741 -999 4.253644 31.50315 -0.578993
2005-08-23 12:39:23 51°20.874 2°53.644 -999 4.247214 31.441032 -0.444155
2005-08-23 12:40:23 51°20.645 2°53.541 -999 4.240576 31.374867 -0.410446
2005-08-23 12:41:23 51°20.418 2°53.437 -999 4.232901 31.302586 -0.444155
2005-08-23 12:42:23 51°20.188 2°53.334 -999 4.232797 31.283312 -0.477864
2005-08-23 12:43:23 51°19.956 2°53.222 -999 4.228857 31.264461 -0.410446
2005-08-23 12:44:23 51°19.727 2°53.11 -999 4.231656 31.251958 -0.444155
2005-08-23 12:45:23 51°19.497 2°53.008 -999 4.229271 31.25542 -0.309317
2005-08-23 12:46:23 51°19.27 2°52.901 -999 4.224086 31.231634 -0.376736
2005-08-23 12:47:23 51°19.045 2°52.8 -999 4.217967 31.169322 -0.410446
2005-08-23 12:48:23 51°18.818 2°52.7 -999 4.213093 31.127367 -0.17448
2005-08-23 12:49:23 51°18.593 2°52.597 -999 4.204175 31.070972 -0.208189
2005-08-23 12:50:23 51°18.364 2°52.494 -999 4.209671 31.108018 -0.107061
2005-08-23 12:51:23 51°18.139 2°52.39 -999 4.215271 31.148866 0.128905
2005-08-23 12:52:23 51°17.911 2°52.326 -999 4.207182 31.08632 0.364871
2005-08-23 12:53:23 51°17.679 2°52.311 -999 4.210293 31.110194 0.196324
2005-08-23 12:54:23 51°17.451 2°52.304 -999 4.206352 31.070043 0.230033
2005-08-23 12:55:23 51°17.221 2°52.315 -999 4.201063 31.014105 0.39858
2005-08-23 12:56:23 51°16.999 2°52.405 -999 4.199093 30.986124 0.331161
2005-08-23 12:57:23 51°16.783 2°52.524 -999 4.203863 31.029512 0.263742
2005-08-23 12:58:23 51°16.572 2°52.662 -999 4.203137 31.035896 0.230033
2005-08-23 12:59:23 51°16.362 2°52.813 -999 4.1937 30.941155 0.263742
2005-08-23 13:00:23 51°16.155 2°52.963 -999 4.189448 30.871053 0.331161
2005-08-23 13:01:23 51°15.947 2°53.101 -999 4.189551 30.856131 0.263742
2005-08-23 13:02:23 51°15.738 2°53.248 -999 4.188516 30.90435 0.027777
2005-08-23 13:03:23 51°15.531 2°53.405 -999 4.190901 30.940411 0.027777
2005-08-23 13:04:23 51°15.33 2°53.556 -999 4.18779 30.918902 0.162614
2005-08-23 13:05:23 51°15.133 2°53.729 -999 4.187376 30.954269 0.061486
2005-08-23 13:06:23 51°14.971 2°53.889 -999 4.182605 30.862153 0.027777
2005-08-23 13:07:23 51°14.815 2°54.076 -999 4.173272 30.77661 0.196324
2005-08-23 13:08:23 51°14.667 2°54.311 -999 4.174517 30.813724 0.162614
2005-08-23 13:09:23 51°14.54 2°54.585 -999 4.172443 30.78263 0.128905
2005-08-23 13:10:23 51°14.428 2°54.854 -999 4.16591 30.718402 0.128905
2005-08-23 13:11:23 51°14.348 2°55.071 -999 4.152118 30.565055 0.061486
2005-08-23 13:12:23 51°14.261 2°55.249 -999 3.692698 26.768187 0.128905
2005-08-23 13:13:23 51°14.171 2°55.388 -999 3.526789 25.48554 0.095195
2005-08-23 13:14:24 51°14.043 2°55.482 -999 3.359802 24.167034 0.061486
2005-08-23 13:15:23 51°13.906 2°55.578 -999 3.231058 23.15565 -0.107061
2005-08-23 13:16:23 51°13.769 2°55.695 -999 2.861479 20.175294 -0.17448
2005-08-23 13:17:23 51°13.691 2°55.828 -999 1.952879 13.194797 -0.343027
2005-08-23 13:18:23 51°13.64 2°55.948 -999 2.745174 19.286967 -0.376736
2005-08-23 13:19:24 51°13.608 2°56.055 -999 2.72078 19.124268 2.117759
2005-08-23 13:20:24 51°13.597 2°56.093 -999 0.031745 0.173144 1.140187